sensor_id;sensor_type;location;lat;lon;timestamp;P1;durP1;ratioP1;P2;durP2;ratioP2
5475;SDS011;2760;50.000;9.194;2023-09-07T00:01:34;7.30;;;5.30;;
5475;SDS011;2760;50.000;9.194;2023-09-07T00:04:02;4.60;;;4.20;;
5475;SDS011;2760;50.000;9.194;2023-09-07T00:06:31;6.03;;;5.23;;
5475;SDS011;2760;50.000;9.194;2023-09-07T00:08:59;6.37;;;5.70;;
5475;SDS011;2760;50.000;9.194;2023-09-07T00:11:28;5.70;;;4.83;;
5475;SDS011;2760;50.000;9.194;2023-09-07T00:13:55;7.87;;;5.47;;
5475;SDS011;2760;50.000;9.194;2023-09-07T00:16:24;6.17;;;4.90;;
5475;SDS011;2760;50.000;9.194;2023-09-07T00:18:51;7.10;;;4.97;;
5475;SDS011;2760;50.000;9.194;2023-09-07T00:21:18;14.10;;;4.57;;
5475;SDS011;2760;50.000;9.194;2023-09-07T00:23:45;6.43;;;4.60;;
5475;SDS011;2760;50.000;9.194;2023-09-07T00:26:12;5.60;;;4.57;;
5475;SDS011;2760;50.000;9.194;2023-09-07T00:28:41;5.33;;;4.80;;
5475;SDS011;2760;50.000;9.194;2023-09-07T00:31:08;5.20;;;4.70;;
5475;SDS011;2760;50.000;9.194;2023-09-07T00:33:35;9.30;;;5.33;;
5475;SDS011;2760;50.000;9.194;2023-09-07T00:36:02;7.80;;;4.43;;
5475;SDS011;2760;50.000;9.194;2023-09-07T00:38:30;7.20;;;5.43;;
5475;SDS011;2760;50.000;9.194;2023-09-07T00:40:57;11.20;;;5.20;;
5475;SDS011;2760;50.000;9.194;2023-09-07T00:43:24;8.53;;;5.93;;
5475;SDS011;2760;50.000;9.194;2023-09-07T00:45:52;8.70;;;5.27;;
5475;SDS011;2760;50.000;9.194;2023-09-07T00:48:19;9.63;;;5.73;;
5475;SDS011;2760;50.000;9.194;2023-09-07T00:50:46;5.47;;;4.53;;
5475;SDS011;2760;50.000;9.194;2023-09-07T00:53:13;6.63;;;5.30;;
5475;SDS011;2760;50.000;9.194;2023-09-07T00:55:43;9.63;;;5.70;;
5475;SDS011;2760;50.000;9.194;2023-09-07T00:58:11;8.10;;;5.73;;
5475;SDS011;2760;50.000;9.194;2023-09-07T01:00:38;4.97;;;4.40;;
5475;SDS011;2760;50.000;9.194;2023-09-07T01:03:07;4.87;;;4.30;;
5475;SDS011;2760;50.000;9.194;2023-09-07T01:05:37;7.80;;;4.30;;
5475;SDS011;2760;50.000;9.194;2023-09-07T01:08:12;8.33;;;4.80;;
5475;SDS011;2760;50.000;9.194;2023-09-07T01:10:45;13.40;;;4.80;;
5475;SDS011;2760;50.000;9.194;2023-09-07T01:13:12;8.03;;;4.70;;
5475;SDS011;2760;50.000;9.194;2023-09-07T01:15:39;5.00;;;4.50;;
5475;SDS011;2760;50.000;9.194;2023-09-07T01:18:07;7.90;;;4.70;;
5475;SDS011;2760;50.000;9.194;2023-09-07T01:20:35;6.17;;;4.60;;
5475;SDS011;2760;50.000;9.194;2023-09-07T01:23:06;5.20;;;4.20;;
5475;SDS011;2760;50.000;9.194;2023-09-07T01:25:34;8.63;;;4.10;;
5475;SDS011;2760;50.000;9.194;2023-09-07T01:28:01;5.00;;;4.50;;
5475;SDS011;2760;50.000;9.194;2023-09-07T01:30:28;9.00;;;4.63;;
5475;SDS011;2760;50.000;9.194;2023-09-07T01:32:55;5.10;;;4.60;;
5475;SDS011;2760;50.000;9.194;2023-09-07T01:35:22;5.77;;;5.10;;
5475;SDS011;2760;50.000;9.194;2023-09-07T01:37:51;7.83;;;4.30;;
5475;SDS011;2760;50.000;9.194;2023-09-07T01:40:19;9.47;;;4.27;;
5475;SDS011;2760;50.000;9.194;2023-09-07T01:42:46;5.50;;;4.03;;
5475;SDS011;2760;50.000;9.194;2023-09-07T01:45:13;5.03;;;3.80;;
5475;SDS011;2760;50.000;9.194;2023-09-07T01:47:40;4.50;;;4.10;;
5475;SDS011;2760;50.000;9.194;2023-09-07T01:50:08;8.57;;;4.40;;
5475;SDS011;2760;50.000;9.194;2023-09-07T01:52:35;5.43;;;4.90;;
5475;SDS011;2760;50.000;9.194;2023-09-07T01:55:02;5.93;;;4.70;;
5475;SDS011;2760;50.000;9.194;2023-09-07T01:57:32;6.53;;;4.20;;
5475;SDS011;2760;50.000;9.194;2023-09-07T01:59:59;5.43;;;4.10;;
5475;SDS011;2760;50.000;9.194;2023-09-07T02:02:26;13.17;;;4.40;;
5475;SDS011;2760;50.000;9.194;2023-09-07T02:04:53;7.43;;;4.40;;
5475;SDS011;2760;50.000;9.194;2023-09-07T02:07:20;6.17;;;4.17;;
5475;SDS011;2760;50.000;9.194;2023-09-07T02:09:47;6.53;;;4.70;;
5475;SDS011;2760;50.000;9.194;2023-09-07T02:12:14;7.63;;;5.00;;
5475;SDS011;2760;50.000;9.194;2023-09-07T02:14:42;4.93;;;4.33;;
5475;SDS011;2760;50.000;9.194;2023-09-07T02:17:09;7.43;;;5.27;;
5475;SDS011;2760;50.000;9.194;2023-09-07T02:19:39;9.03;;;4.90;;
5475;SDS011;2760;50.000;9.194;2023-09-07T02:22:08;7.10;;;4.63;;
5475;SDS011;2760;50.000;9.194;2023-09-07T02:24:35;9.27;;;4.40;;
5475;SDS011;2760;50.000;9.194;2023-09-07T02:27:03;4.80;;;4.30;;
5475;SDS011;2760;50.000;9.194;2023-09-07T02:29:30;7.13;;;4.33;;
5475;SDS011;2760;50.000;9.194;2023-09-07T02:31:58;7.00;;;6.10;;
5475;SDS011;2760;50.000;9.194;2023-09-07T02:34:25;5.23;;;4.73;;
5475;SDS011;2760;50.000;9.194;2023-09-07T02:36:52;4.63;;;4.27;;
5475;SDS011;2760;50.000;9.194;2023-09-07T02:39:20;5.37;;;4.43;;
5475;SDS011;2760;50.000;9.194;2023-09-07T02:41:48;5.50;;;4.37;;
5475;SDS011;2760;50.000;9.194;2023-09-07T02:44:15;5.13;;;4.30;;
5475;SDS011;2760;50.000;9.194;2023-09-07T02:46:42;6.67;;;4.93;;
5475;SDS011;2760;50.000;9.194;2023-09-07T02:49:11;5.90;;;4.47;;
5475;SDS011;2760;50.000;9.194;2023-09-07T02:51:38;5.37;;;4.80;;
5475;SDS011;2760;50.000;9.194;2023-09-07T02:54:05;4.83;;;4.43;;
5475;SDS011;2760;50.000;9.194;2023-09-07T02:56:32;10.50;;;5.53;;
5475;SDS011;2760;50.000;9.194;2023-09-07T02:58:59;12.23;;;5.03;;
5475;SDS011;2760;50.000;9.194;2023-09-07T03:01:26;6.00;;;5.40;;
5475;SDS011;2760;50.000;9.194;2023-09-07T03:03:54;5.33;;;4.73;;
5475;SDS011;2760;50.000;9.194;2023-09-07T03:06:23;8.10;;;5.77;;
5475;SDS011;2760;50.000;9.194;2023-09-07T03:08:52;8.30;;;5.07;;
5475;SDS011;2760;50.000;9.194;2023-09-07T03:11:19;7.47;;;6.27;;
5475;SDS011;2760;50.000;9.194;2023-09-07T03:13:49;5.70;;;5.10;;
5475;SDS011;2760;50.000;9.194;2023-09-07T03:16:16;9.43;;;5.40;;
5475;SDS011;2760;50.000;9.194;2023-09-07T03:18:43;8.27;;;4.23;;
5475;SDS011;2760;50.000;9.194;2023-09-07T03:21:12;7.17;;;5.13;;
5475;SDS011;2760;50.000;9.194;2023-09-07T03:23:40;5.73;;;5.13;;
5475;SDS011;2760;50.000;9.194;2023-09-07T03:26:10;6.63;;;5.10;;
5475;SDS011;2760;50.000;9.194;2023-09-07T03:28:38;6.57;;;5.43;;
5475;SDS011;2760;50.000;9.194;2023-09-07T03:31:05;8.53;;;5.90;;
5475;SDS011;2760;50.000;9.194;2023-09-07T03:33:32;7.77;;;6.20;;
5475;SDS011;2760;50.000;9.194;2023-09-07T03:35:59;7.50;;;5.90;;
5475;SDS011;2760;50.000;9.194;2023-09-07T03:38:27;8.47;;;6.00;;
5475;SDS011;2760;50.000;9.194;2023-09-07T03:40:56;8.80;;;6.37;;
5475;SDS011;2760;50.000;9.194;2023-09-07T03:43:23;6.77;;;6.07;;
5475;SDS011;2760;50.000;9.194;2023-09-07T03:45:51;9.87;;;5.63;;
5475;SDS011;2760;50.000;9.194;2023-09-07T03:48:18;6.50;;;5.63;;
5475;SDS011;2760;50.000;9.194;2023-09-07T03:50:46;9.13;;;5.57;;
5475;SDS011;2760;50.000;9.194;2023-09-07T03:53:13;11.03;;;5.40;;
5475;SDS011;2760;50.000;9.194;2023-09-07T03:55:41;7.30;;;5.90;;
5475;SDS011;2760;50.000;9.194;2023-09-07T03:58:11;10.33;;;6.33;;
5475;SDS011;2760;50.000;9.194;2023-09-07T04:00:39;6.13;;;5.53;;
5475;SDS011;2760;50.000;9.194;2023-09-07T04:03:07;8.77;;;6.57;;
5475;SDS011;2760;50.000;9.194;2023-09-07T04:05:36;8.70;;;6.17;;
5475;SDS011;2760;50.000;9.194;2023-09-07T04:08:04;8.30;;;6.40;;
5475;SDS011;2760;50.000;9.194;2023-09-07T04:10:31;10.67;;;5.60;;
5475;SDS011;2760;50.000;9.194;2023-09-07T04:12:58;8.40;;;5.97;;
5475;SDS011;2760;50.000;9.194;2023-09-07T04:17:56;6.43;;;5.50;;
5475;SDS011;2760;50.000;9.194;2023-09-07T04:20:23;10.33;;;5.60;;
5475;SDS011;2760;50.000;9.194;2023-09-07T04:22:51;8.20;;;6.20;;
5475;SDS011;2760;50.000;9.194;2023-09-07T04:25:19;8.03;;;5.40;;
5475;SDS011;2760;50.000;9.194;2023-09-07T04:27:46;8.93;;;5.80;;
5475;SDS011;2760;50.000;9.194;2023-09-07T04:30:13;10.47;;;5.40;;
5475;SDS011;2760;50.000;9.194;2023-09-07T04:32:42;7.80;;;6.40;;
5475;SDS011;2760;50.000;9.194;2023-09-07T04:35:09;10.03;;;6.73;;
5475;SDS011;2760;50.000;9.194;2023-09-07T04:37:36;6.70;;;5.63;;
5475;SDS011;2760;50.000;9.194;2023-09-07T04:40:05;9.93;;;6.90;;
5475;SDS011;2760;50.000;9.194;2023-09-07T04:42:33;10.20;;;7.03;;
5475;SDS011;2760;50.000;9.194;2023-09-07T04:45:00;8.00;;;6.90;;
5475;SDS011;2760;50.000;9.194;2023-09-07T04:47:27;9.00;;;6.70;;
5475;SDS011;2760;50.000;9.194;2023-09-07T04:49:55;9.60;;;6.90;;
5475;SDS011;2760;50.000;9.194;2023-09-07T04:52:22;18.33;;;7.70;;
5475;SDS011;2760;50.000;9.194;2023-09-07T04:54:49;9.53;;;7.60;;
5475;SDS011;2760;50.000;9.194;2023-09-07T04:57:18;8.03;;;6.30;;
5475;SDS011;2760;50.000;9.194;2023-09-07T04:59:46;11.60;;;6.60;;
5475;SDS011;2760;50.000;9.194;2023-09-07T05:02:13;8.60;;;7.30;;
5475;SDS011;2760;50.000;9.194;2023-09-07T05:04:40;11.00;;;7.30;;
5475;SDS011;2760;50.000;9.194;2023-09-07T05:07:08;9.33;;;7.13;;
5475;SDS011;2760;50.000;9.194;2023-09-07T05:09:35;14.17;;;7.77;;
5475;SDS011;2760;50.000;9.194;2023-09-07T05:12:03;11.40;;;7.70;;
5475;SDS011;2760;50.000;9.194;2023-09-07T05:14:30;12.23;;;6.83;;
5475;SDS011;2760;50.000;9.194;2023-09-07T05:16:57;12.97;;;8.50;;
5475;SDS011;2760;50.000;9.194;2023-09-07T05:19:24;13.43;;;7.70;;
5475;SDS011;2760;50.000;9.194;2023-09-07T05:21:51;16.00;;;7.07;;
5475;SDS011;2760;50.000;9.194;2023-09-07T05:24:20;15.70;;;7.33;;
5475;SDS011;2760;50.000;9.194;2023-09-07T05:26:47;9.80;;;6.60;;
5475;SDS011;2760;50.000;9.194;2023-09-07T05:29:14;8.40;;;6.70;;
5475;SDS011;2760;50.000;9.194;2023-09-07T05:31:41;11.10;;;7.80;;
5475;SDS011;2760;50.000;9.194;2023-09-07T05:34:08;9.23;;;6.80;;
5475;SDS011;2760;50.000;9.194;2023-09-07T05:36:35;9.87;;;8.23;;
5475;SDS011;2760;50.000;9.194;2023-09-07T05:39:02;12.17;;;8.00;;
5475;SDS011;2760;50.000;9.194;2023-09-07T05:41:31;8.33;;;7.20;;
5475;SDS011;2760;50.000;9.194;2023-09-07T05:43:58;9.17;;;7.17;;
5475;SDS011;2760;50.000;9.194;2023-09-07T05:46:25;9.93;;;7.00;;
5475;SDS011;2760;50.000;9.194;2023-09-07T05:48:52;7.50;;;6.27;;
5475;SDS011;2760;50.000;9.194;2023-09-07T05:51:19;10.40;;;7.20;;
5475;SDS011;2760;50.000;9.194;2023-09-07T05:53:47;9.20;;;7.20;;
5475;SDS011;2760;50.000;9.194;2023-09-07T05:56:14;8.30;;;6.83;;
5475;SDS011;2760;50.000;9.194;2023-09-07T05:58:44;12.33;;;7.33;;
5475;SDS011;2760;50.000;9.194;2023-09-07T06:01:15;12.37;;;7.40;;
5475;SDS011;2760;50.000;9.194;2023-09-07T06:03:42;11.37;;;7.70;;
5475;SDS011;2760;50.000;9.194;2023-09-07T06:06:09;15.93;;;6.87;;
5475;SDS011;2760;50.000;9.194;2023-09-07T06:08:36;8.10;;;5.80;;
5475;SDS011;2760;50.000;9.194;2023-09-07T06:11:03;11.60;;;7.10;;
5475;SDS011;2760;50.000;9.194;2023-09-07T06:13:31;16.20;;;6.97;;
5475;SDS011;2760;50.000;9.194;2023-09-07T06:15:59;9.60;;;6.80;;
5475;SDS011;2760;50.000;9.194;2023-09-07T06:18:26;9.20;;;6.20;;
5475;SDS011;2760;50.000;9.194;2023-09-07T06:20:54;9.73;;;6.90;;
5475;SDS011;2760;50.000;9.194;2023-09-07T06:23:21;9.97;;;6.63;;
5475;SDS011;2760;50.000;9.194;2023-09-07T06:25:48;10.60;;;7.53;;
5475;SDS011;2760;50.000;9.194;2023-09-07T06:28:15;9.70;;;6.47;;
5475;SDS011;2760;50.000;9.194;2023-09-07T06:30:43;8.43;;;6.50;;
5475;SDS011;2760;50.000;9.194;2023-09-07T06:33:11;8.13;;;6.37;;
5475;SDS011;2760;50.000;9.194;2023-09-07T06:35:38;10.30;;;6.13;;
5475;SDS011;2760;50.000;9.194;2023-09-07T06:38:05;6.73;;;6.13;;
5475;SDS011;2760;50.000;9.194;2023-09-07T06:40:32;8.33;;;5.77;;
5475;SDS011;2760;50.000;9.194;2023-09-07T06:42:59;8.30;;;5.73;;
5475;SDS011;2760;50.000;9.194;2023-09-07T06:45:30;8.67;;;5.50;;
5475;SDS011;2760;50.000;9.194;2023-09-07T06:48:01;7.87;;;6.13;;
5475;SDS011;2760;50.000;9.194;2023-09-07T06:50:29;10.63;;;5.47;;
5475;SDS011;2760;50.000;9.194;2023-09-07T06:52:56;7.60;;;5.70;;
5475;SDS011;2760;50.000;9.194;2023-09-07T06:55:23;7.60;;;4.70;;
5475;SDS011;2760;50.000;9.194;2023-09-07T06:57:51;7.60;;;5.73;;
5475;SDS011;2760;50.000;9.194;2023-09-07T07:00:21;7.37;;;5.70;;
5475;SDS011;2760;50.000;9.194;2023-09-07T07:02:49;8.87;;;5.40;;
5475;SDS011;2760;50.000;9.194;2023-09-07T07:05:16;6.00;;;5.33;;
5475;SDS011;2760;50.000;9.194;2023-09-07T07:07:45;8.73;;;5.83;;
5475;SDS011;2760;50.000;9.194;2023-09-07T07:10:12;6.73;;;5.00;;
5475;SDS011;2760;50.000;9.194;2023-09-07T07:12:40;5.90;;;5.13;;
5475;SDS011;2760;50.000;9.194;2023-09-07T07:15:08;6.47;;;4.93;;
5475;SDS011;2760;50.000;9.194;2023-09-07T07:17:37;11.30;;;5.53;;
5475;SDS011;2760;50.000;9.194;2023-09-07T07:20:04;8.40;;;5.83;;
5475;SDS011;2760;50.000;9.194;2023-09-07T07:22:32;6.73;;;5.23;;
5475;SDS011;2760;50.000;9.194;2023-09-07T07:25:02;11.83;;;4.70;;
5475;SDS011;2760;50.000;9.194;2023-09-07T07:27:31;8.53;;;5.23;;
5475;SDS011;2760;50.000;9.194;2023-09-07T07:29:58;9.10;;;5.17;;
5475;SDS011;2760;50.000;9.194;2023-09-07T07:32:25;6.50;;;4.30;;
5475;SDS011;2760;50.000;9.194;2023-09-07T07:34:52;10.60;;;4.70;;
5475;SDS011;2760;50.000;9.194;2023-09-07T07:37:20;10.10;;;4.90;;
5475;SDS011;2760;50.000;9.194;2023-09-07T07:39:47;9.03;;;4.90;;
5475;SDS011;2760;50.000;9.194;2023-09-07T07:42:16;8.23;;;5.03;;
5475;SDS011;2760;50.000;9.194;2023-09-07T07:44:44;8.10;;;4.60;;
5475;SDS011;2760;50.000;9.194;2023-09-07T07:47:11;6.37;;;5.00;;
5475;SDS011;2760;50.000;9.194;2023-09-07T07:49:38;6.00;;;5.00;;
5475;SDS011;2760;50.000;9.194;2023-09-07T07:52:06;5.77;;;4.90;;
5475;SDS011;2760;50.000;9.194;2023-09-07T07:54:33;5.73;;;4.40;;
5475;SDS011;2760;50.000;9.194;2023-09-07T07:57:01;4.80;;;4.30;;
5475;SDS011;2760;50.000;9.194;2023-09-07T07:59:33;5.93;;;4.87;;
5475;SDS011;2760;50.000;9.194;2023-09-07T08:02:01;5.53;;;4.60;;
5475;SDS011;2760;50.000;9.194;2023-09-07T08:04:28;7.73;;;4.40;;
5475;SDS011;2760;50.000;9.194;2023-09-07T08:06:57;4.70;;;4.30;;
5475;SDS011;2760;50.000;9.194;2023-09-07T08:09:29;6.13;;;5.07;;
5475;SDS011;2760;50.000;9.194;2023-09-07T08:11:56;5.87;;;5.33;;
5475;SDS011;2760;50.000;9.194;2023-09-07T08:14:24;5.67;;;5.17;;
5475;SDS011;2760;50.000;9.194;2023-09-07T08:16:54;4.83;;;4.43;;
5475;SDS011;2760;50.000;9.194;2023-09-07T08:19:23;5.63;;;5.03;;
5475;SDS011;2760;50.000;9.194;2023-09-07T08:21:53;6.33;;;4.43;;
5475;SDS011;2760;50.000;9.194;2023-09-07T08:24:20;8.20;;;4.30;;
5475;SDS011;2760;50.000;9.194;2023-09-07T08:26:47;4.93;;;4.43;;
5475;SDS011;2760;50.000;9.194;2023-09-07T08:29:19;5.00;;;4.50;;
5475;SDS011;2760;50.000;9.194;2023-09-07T08:31:46;7.63;;;5.03;;
5475;SDS011;2760;50.000;9.194;2023-09-07T08:34:15;9.10;;;8.17;;
5475;SDS011;2760;50.000;9.194;2023-09-07T08:36:44;6.20;;;4.20;;
5475;SDS011;2760;50.000;9.194;2023-09-07T08:39:11;11.33;;;4.27;;
5475;SDS011;2760;50.000;9.194;2023-09-07T08:41:38;6.70;;;4.20;;
5475;SDS011;2760;50.000;9.194;2023-09-07T08:44:09;6.03;;;4.30;;
5475;SDS011;2760;50.000;9.194;2023-09-07T08:46:37;5.87;;;5.23;;
5475;SDS011;2760;50.000;9.194;2023-09-07T08:49:04;4.73;;;4.23;;
5475;SDS011;2760;50.000;9.194;2023-09-07T08:51:32;4.77;;;4.10;;
5475;SDS011;2760;50.000;9.194;2023-09-07T08:54:02;5.10;;;4.50;;
5475;SDS011;2760;50.000;9.194;2023-09-07T08:56:32;3.93;;;3.60;;
5475;SDS011;2760;50.000;9.194;2023-09-07T08:58:59;5.07;;;4.23;;
5475;SDS011;2760;50.000;9.194;2023-09-07T09:01:28;6.00;;;4.27;;
5475;SDS011;2760;50.000;9.194;2023-09-07T09:03:56;5.20;;;4.73;;
5475;SDS011;2760;50.000;9.194;2023-09-07T09:06:25;4.80;;;3.70;;
5475;SDS011;2760;50.000;9.194;2023-09-07T09:08:55;4.53;;;4.13;;
5475;SDS011;2760;50.000;9.194;2023-09-07T09:11:23;5.07;;;4.30;;
5475;SDS011;2760;50.000;9.194;2023-09-07T09:13:51;5.00;;;4.47;;
5475;SDS011;2760;50.000;9.194;2023-09-07T09:16:19;4.60;;;4.10;;
5475;SDS011;2760;50.000;9.194;2023-09-07T09:18:47;6.07;;;4.20;;
5475;SDS011;2760;50.000;9.194;2023-09-07T09:21:17;6.40;;;4.03;;
5475;SDS011;2760;50.000;9.194;2023-09-07T09:23:46;4.97;;;4.47;;
5475;SDS011;2760;50.000;9.194;2023-09-07T09:26:16;5.63;;;4.17;;
5475;SDS011;2760;50.000;9.194;2023-09-07T09:28:43;8.10;;;5.70;;
5475;SDS011;2760;50.000;9.194;2023-09-07T09:31:12;8.47;;;4.80;;
5475;SDS011;2760;50.000;9.194;2023-09-07T09:33:39;4.97;;;4.57;;
5475;SDS011;2760;50.000;9.194;2023-09-07T09:36:07;4.80;;;4.10;;
5475;SDS011;2760;50.000;9.194;2023-09-07T09:38:34;8.53;;;4.13;;
5475;SDS011;2760;50.000;9.194;2023-09-07T09:41:03;4.63;;;4.23;;
5475;SDS011;2760;50.000;9.194;2023-09-07T09:43:32;5.90;;;4.30;;
5475;SDS011;2760;50.000;9.194;2023-09-07T09:46:00;5.10;;;4.60;;
5475;SDS011;2760;50.000;9.194;2023-09-07T09:48:28;5.57;;;4.97;;
5475;SDS011;2760;50.000;9.194;2023-09-07T09:50:57;6.83;;;4.83;;
5475;SDS011;2760;50.000;9.194;2023-09-07T09:53:27;5.20;;;4.70;;
5475;SDS011;2760;50.000;9.194;2023-09-07T09:55:54;7.77;;;4.90;;
5475;SDS011;2760;50.000;9.194;2023-09-07T09:58:21;6.50;;;5.13;;
5475;SDS011;2760;50.000;9.194;2023-09-07T10:00:51;9.60;;;5.27;;
5475;SDS011;2760;50.000;9.194;2023-09-07T10:03:23;5.20;;;4.70;;
5475;SDS011;2760;50.000;9.194;2023-09-07T10:05:53;7.33;;;5.07;;
5475;SDS011;2760;50.000;9.194;2023-09-07T10:08:20;5.70;;;4.67;;
5475;SDS011;2760;50.000;9.194;2023-09-07T10:10:48;5.60;;;4.00;;
5475;SDS011;2760;50.000;9.194;2023-09-07T10:13:28;5.00;;;4.57;;
5475;SDS011;2760;50.000;9.194;2023-09-07T10:16:01;4.73;;;4.33;;
5475;SDS011;2760;50.000;9.194;2023-09-07T10:18:33;8.07;;;4.83;;
5475;SDS011;2760;50.000;9.194;2023-09-07T10:21:01;11.60;;;4.50;;
5475;SDS011;2760;50.000;9.194;2023-09-07T10:23:35;5.37;;;4.27;;
5475;SDS011;2760;50.000;9.194;2023-09-07T10:26:03;5.60;;;4.80;;
5475;SDS011;2760;50.000;9.194;2023-09-07T10:28:31;5.40;;;4.43;;
5475;SDS011;2760;50.000;9.194;2023-09-07T10:31:03;5.23;;;3.90;;
5475;SDS011;2760;50.000;9.194;2023-09-07T10:33:31;8.30;;;4.77;;
5475;SDS011;2760;50.000;9.194;2023-09-07T10:35:59;6.90;;;5.03;;
5475;SDS011;2760;50.000;9.194;2023-09-07T10:38:26;5.00;;;4.50;;
5475;SDS011;2760;50.000;9.194;2023-09-07T10:40:57;6.03;;;4.60;;
5475;SDS011;2760;50.000;9.194;2023-09-07T10:43:25;12.80;;;5.27;;
5475;SDS011;2760;50.000;9.194;2023-09-07T10:45:53;5.53;;;4.37;;
5475;SDS011;2760;50.000;9.194;2023-09-07T10:48:22;5.20;;;4.60;;
5475;SDS011;2760;50.000;9.194;2023-09-07T10:50:50;9.07;;;4.73;;
5475;SDS011;2760;50.000;9.194;2023-09-07T10:53:24;4.83;;;4.37;;
5475;SDS011;2760;50.000;9.194;2023-09-07T10:55:53;8.47;;;4.80;;
5475;SDS011;2760;50.000;9.194;2023-09-07T10:58:25;10.67;;;4.70;;
5475;SDS011;2760;50.000;9.194;2023-09-07T11:00:53;4.33;;;4.00;;
5475;SDS011;2760;50.000;9.194;2023-09-07T11:03:20;8.40;;;4.10;;
5475;SDS011;2760;50.000;9.194;2023-09-07T11:05:48;12.23;;;4.63;;
5475;SDS011;2760;50.000;9.194;2023-09-07T11:08:16;8.43;;;4.43;;
5475;SDS011;2760;50.000;9.194;2023-09-07T11:10:43;5.60;;;4.30;;
5475;SDS011;2760;50.000;9.194;2023-09-07T11:13:10;4.10;;;3.80;;
5475;SDS011;2760;50.000;9.194;2023-09-07T11:15:41;5.60;;;4.03;;
5475;SDS011;2760;50.000;9.194;2023-09-07T11:18:09;3.97;;;3.67;;
5475;SDS011;2760;50.000;9.194;2023-09-07T11:20:36;8.73;;;4.00;;
5475;SDS011;2760;50.000;9.194;2023-09-07T11:23:06;6.13;;;4.07;;
5475;SDS011;2760;50.000;9.194;2023-09-07T11:25:34;6.83;;;4.17;;
5475;SDS011;2760;50.000;9.194;2023-09-07T11:28:03;8.50;;;4.07;;
5475;SDS011;2760;50.000;9.194;2023-09-07T11:30:30;7.13;;;4.70;;
5475;SDS011;2760;50.000;9.194;2023-09-07T11:33:01;5.90;;;4.27;;
5475;SDS011;2760;50.000;9.194;2023-09-07T11:35:30;6.40;;;4.57;;
5475;SDS011;2760;50.000;9.194;2023-09-07T11:37:59;8.97;;;4.20;;
5475;SDS011;2760;50.000;9.194;2023-09-07T11:40:27;4.47;;;4.07;;
5475;SDS011;2760;50.000;9.194;2023-09-07T11:42:54;5.13;;;3.80;;
5475;SDS011;2760;50.000;9.194;2023-09-07T11:45:21;5.10;;;4.60;;
5475;SDS011;2760;50.000;9.194;2023-09-07T11:47:48;9.43;;;4.03;;
5475;SDS011;2760;50.000;9.194;2023-09-07T11:50:17;4.93;;;3.80;;
5475;SDS011;2760;50.000;9.194;2023-09-07T11:52:45;5.80;;;4.40;;
5475;SDS011;2760;50.000;9.194;2023-09-07T11:55:13;6.40;;;3.90;;
5475;SDS011;2760;50.000;9.194;2023-09-07T11:57:42;5.83;;;4.23;;
5475;SDS011;2760;50.000;9.194;2023-09-07T12:00:10;6.50;;;3.97;;
5475;SDS011;2760;50.000;9.194;2023-09-07T12:02:38;4.53;;;4.00;;
5475;SDS011;2760;50.000;9.194;2023-09-07T12:05:05;5.60;;;5.03;;
5475;SDS011;2760;50.000;9.194;2023-09-07T12:07:34;7.00;;;4.53;;
5475;SDS011;2760;50.000;9.194;2023-09-07T12:10:01;5.20;;;3.83;;
5475;SDS011;2760;50.000;9.194;2023-09-07T12:12:28;6.07;;;4.53;;
5475;SDS011;2760;50.000;9.194;2023-09-07T12:14:57;5.13;;;4.57;;
5475;SDS011;2760;50.000;9.194;2023-09-07T12:17:25;5.50;;;4.50;;
5475;SDS011;2760;50.000;9.194;2023-09-07T12:19:52;11.60;;;4.60;;
5475;SDS011;2760;50.000;9.194;2023-09-07T12:22:19;5.73;;;4.80;;
5475;SDS011;2760;50.000;9.194;2023-09-07T12:24:46;4.93;;;4.20;;
5475;SDS011;2760;50.000;9.194;2023-09-07T12:27:15;5.73;;;3.90;;
5475;SDS011;2760;50.000;9.194;2023-09-07T12:29:43;5.87;;;3.80;;
5475;SDS011;2760;50.000;9.194;2023-09-07T12:32:12;5.10;;;4.27;;
5475;SDS011;2760;50.000;9.194;2023-09-07T12:34:39;5.00;;;4.60;;
5475;SDS011;2760;50.000;9.194;2023-09-07T12:37:06;8.77;;;4.03;;
5475;SDS011;2760;50.000;9.194;2023-09-07T12:39:36;9.43;;;4.60;;
5475;SDS011;2760;50.000;9.194;2023-09-07T12:42:03;18.10;;;4.40;;
5475;SDS011;2760;50.000;9.194;2023-09-07T12:44:30;4.13;;;3.60;;
5475;SDS011;2760;50.000;9.194;2023-09-07T12:46:58;6.60;;;4.57;;
5475;SDS011;2760;50.000;9.194;2023-09-07T12:49:26;11.63;;;4.13;;
5475;SDS011;2760;50.000;9.194;2023-09-07T12:51:53;6.93;;;3.60;;
5475;SDS011;2760;50.000;9.194;2023-09-07T12:54:20;11.10;;;3.87;;
5475;SDS011;2760;50.000;9.194;2023-09-07T12:56:47;4.57;;;4.17;;
5475;SDS011;2760;50.000;9.194;2023-09-07T12:59:14;4.00;;;3.60;;
5475;SDS011;2760;50.000;9.194;2023-09-07T13:01:41;9.07;;;3.80;;
5475;SDS011;2760;50.000;9.194;2023-09-07T13:04:08;6.60;;;3.30;;
5475;SDS011;2760;50.000;9.194;2023-09-07T13:06:38;5.40;;;4.10;;
5475;SDS011;2760;50.000;9.194;2023-09-07T13:09:05;10.43;;;4.30;;
5475;SDS011;2760;50.000;9.194;2023-09-07T13:11:35;4.50;;;4.10;;
5475;SDS011;2760;50.000;9.194;2023-09-07T13:14:04;4.83;;;3.83;;
5475;SDS011;2760;50.000;9.194;2023-09-07T13:16:33;4.60;;;3.87;;
5475;SDS011;2760;50.000;9.194;2023-09-07T13:19:00;5.17;;;4.40;;
5475;SDS011;2760;50.000;9.194;2023-09-07T13:21:27;5.50;;;4.07;;
5475;SDS011;2760;50.000;9.194;2023-09-07T13:23:55;5.53;;;3.73;;
5475;SDS011;2760;50.000;9.194;2023-09-07T13:26:22;5.40;;;4.37;;
5475;SDS011;2760;50.000;9.194;2023-09-07T13:28:49;6.57;;;3.73;;
5475;SDS011;2760;50.000;9.194;2023-09-07T13:31:17;4.30;;;3.90;;
5475;SDS011;2760;50.000;9.194;2023-09-07T13:33:44;7.50;;;3.80;;
5475;SDS011;2760;50.000;9.194;2023-09-07T13:36:11;9.20;;;4.47;;
5475;SDS011;2760;50.000;9.194;2023-09-07T13:38:38;4.20;;;3.80;;
5475;SDS011;2760;50.000;9.194;2023-09-07T13:41:08;5.60;;;3.80;;
5475;SDS011;2760;50.000;9.194;2023-09-07T13:43:34;7.73;;;3.70;;
5475;SDS011;2760;50.000;9.194;2023-09-07T13:46:01;4.47;;;4.07;;
5475;SDS011;2760;50.000;9.194;2023-09-07T13:48:28;6.40;;;4.53;;
5475;SDS011;2760;50.000;9.194;2023-09-07T13:50:57;10.40;;;4.30;;
5475;SDS011;2760;50.000;9.194;2023-09-07T13:53:24;5.10;;;4.13;;
5475;SDS011;2760;50.000;9.194;2023-09-07T13:55:51;4.30;;;3.73;;
5475;SDS011;2760;50.000;9.194;2023-09-07T13:58:20;4.53;;;4.13;;
5475;SDS011;2760;50.000;9.194;2023-09-07T14:00:47;4.13;;;3.77;;
5475;SDS011;2760;50.000;9.194;2023-09-07T14:03:16;4.10;;;3.70;;
5475;SDS011;2760;50.000;9.194;2023-09-07T14:05:43;12.70;;;4.70;;
5475;SDS011;2760;50.000;9.194;2023-09-07T14:08:09;4.57;;;3.97;;
5475;SDS011;2760;50.000;9.194;2023-09-07T14:10:38;5.82;;;4.30;;
5475;SDS011;2760;50.000;9.194;2023-09-07T14:13:05;8.00;;;3.80;;
5475;SDS011;2760;50.000;9.194;2023-09-07T14:15:33;4.83;;;4.10;;
5475;SDS011;2760;50.000;9.194;2023-09-07T14:18:00;4.40;;;3.63;;
5475;SDS011;2760;50.000;9.194;2023-09-07T14:20:27;5.87;;;4.00;;
5475;SDS011;2760;50.000;9.194;2023-09-07T14:22:54;4.20;;;3.80;;
5475;SDS011;2760;50.000;9.194;2023-09-07T14:25:23;4.10;;;3.67;;
5475;SDS011;2760;50.000;9.194;2023-09-07T14:27:50;4.27;;;3.87;;
5475;SDS011;2760;50.000;9.194;2023-09-07T14:30:17;5.43;;;4.70;;
5475;SDS011;2760;50.000;9.194;2023-09-07T14:32:46;8.97;;;4.40;;
5475;SDS011;2760;50.000;9.194;2023-09-07T14:35:14;4.97;;;4.47;;
5475;SDS011;2760;50.000;9.194;2023-09-07T14:37:41;5.60;;;4.47;;
5475;SDS011;2760;50.000;9.194;2023-09-07T14:40:08;4.13;;;3.80;;
5475;SDS011;2760;50.000;9.194;2023-09-07T14:42:35;4.53;;;4.13;;
5475;SDS011;2760;50.000;9.194;2023-09-07T14:45:03;5.67;;;4.40;;
5475;SDS011;2760;50.000;9.194;2023-09-07T14:47:30;6.50;;;4.57;;
5475;SDS011;2760;50.000;9.194;2023-09-07T14:49:59;4.90;;;3.90;;
5475;SDS011;2760;50.000;9.194;2023-09-07T14:52:25;5.43;;;4.43;;
5475;SDS011;2760;50.000;9.194;2023-09-07T14:54:52;7.27;;;4.50;;
5475;SDS011;2760;50.000;9.194;2023-09-07T14:57:20;10.80;;;4.50;;
5475;SDS011;2760;50.000;9.194;2023-09-07T14:59:47;7.73;;;4.10;;
5475;SDS011;2760;50.000;9.194;2023-09-07T15:02:15;4.87;;;4.37;;
5475;SDS011;2760;50.000;9.194;2023-09-07T15:04:42;6.23;;;4.23;;
5475;SDS011;2760;50.000;9.194;2023-09-07T15:07:11;7.10;;;4.30;;
5475;SDS011;2760;50.000;9.194;2023-09-07T15:09:38;5.37;;;4.50;;
5475;SDS011;2760;50.000;9.194;2023-09-07T15:12:05;7.73;;;4.37;;
5475;SDS011;2760;50.000;9.194;2023-09-07T15:14:32;6.63;;;4.50;;
5475;SDS011;2760;50.000;9.194;2023-09-07T15:17:00;7.20;;;3.97;;
5475;SDS011;2760;50.000;9.194;2023-09-07T15:19:27;5.20;;;3.77;;